createdAt,value
2018-09-15T00:00:43.742Z,1014.99
2018-09-15T00:01:43.755Z,1014.98
2018-09-15T00:02:43.778Z,1015.00
2018-09-15T00:03:43.839Z,1014.98
2018-09-15T00:04:43.822Z,1014.94
2018-09-15T00:05:43.813Z,1015.01
2018-09-15T00:06:43.827Z,1014.99
2018-09-15T00:07:43.873Z,1014.98
2018-09-15T00:08:43.861Z,1015.00
2018-09-15T00:09:43.873Z,1015.02
2018-09-15T00:10:43.884Z,1015.03
2018-09-15T00:11:43.902Z,1014.99
2018-09-15T00:12:43.915Z,1014.98
2018-09-15T00:13:43.941Z,1015.00
2018-09-15T00:14:43.938Z,1015.00
2018-09-15T00:15:43.963Z,1015.02
2018-09-15T00:16:43.971Z,1014.99
2018-09-15T00:17:43.983Z,1015.01
2018-09-15T00:18:44.013Z,1015.03
2018-09-15T00:19:44.010Z,1015.03
2018-09-15T00:20:44.024Z,1015.00
2018-09-15T00:21:44.041Z,1015.03
2018-09-15T00:22:44.050Z,1015.06
2018-09-15T00:23:44.067Z,1015.04
2018-09-15T00:24:44.084Z,1015.05
2018-09-15T00:25:44.101Z,1015.05
2018-09-15T00:26:44.108Z,1015.01
2018-09-15T00:27:44.125Z,1015.07
2018-09-15T00:28:44.137Z,1015.07
2018-09-15T00:29:44.158Z,1015.07
2018-09-15T00:30:44.172Z,1015.06
2018-09-15T00:31:44.179Z,1015.09
2018-09-15T00:32:44.232Z,1015.11
2018-09-15T00:33:44.257Z,1015.10
2018-09-15T00:34:44.641Z,1015.07
2018-09-15T00:35:44.245Z,1015.08
2018-09-15T00:36:44.565Z,1015.06
2018-09-15T00:37:44.262Z,1015.14
2018-09-15T00:38:44.316Z,1015.12
2018-09-15T00:39:44.291Z,1015.10
2018-09-15T00:40:44.308Z,1015.12
2018-09-15T00:41:44.351Z,1015.13
2018-09-15T00:42:44.368Z,1015.10
2018-09-15T00:43:44.348Z,1015.14
2018-09-15T00:44:44.365Z,1015.17
2018-09-15T00:45:44.380Z,1015.18
2018-09-15T00:46:44.391Z,1015.20
2018-09-15T00:47:44.403Z,1015.20
2018-09-15T00:48:44.440Z,1015.20
2018-09-15T00:49:44.460Z,1015.19
2018-09-15T00:50:44.445Z,1015.20
2018-09-15T00:51:44.459Z,1015.21
2018-09-15T00:52:44.523Z,1015.21
2018-09-15T00:53:44.493Z,1015.21
2018-09-15T00:54:44.503Z,1015.18
2018-09-15T00:55:44.516Z,1015.21
2018-09-15T00:56:44.535Z,1015.20
2018-09-15T00:57:44.544Z,1015.20
2018-09-15T00:58:44.557Z,1015.20
2018-09-15T00:59:44.584Z,1015.21
2018-09-15T01:00:44.586Z,1015.18
2018-09-15T01:01:44.635Z,1015.19
2018-09-15T01:02:44.613Z,1015.18
2018-09-15T01:03:44.625Z,1015.18
2018-09-15T01:04:44.691Z,1015.18
2018-09-15T01:05:44.685Z,1015.15
2018-09-15T01:06:44.662Z,1015.22
2018-09-15T01:07:44.685Z,1015.15
2018-09-15T01:08:44.700Z,1015.19
2018-09-15T01:09:44.706Z,1015.15
2018-09-15T01:10:44.717Z,1015.13
2018-09-15T01:11:44.737Z,1015.12
2018-09-15T01:12:44.760Z,1015.15
2018-09-15T01:13:44.761Z,1015.14
2018-09-15T01:14:44.775Z,1015.13
2018-09-15T01:15:44.788Z,1015.15
2018-09-15T01:16:44.804Z,1015.10
2018-09-15T01:17:44.830Z,1015.10
2018-09-15T01:18:44.829Z,1015.08
2018-09-15T01:19:44.844Z,1015.08
2018-09-15T01:20:44.861Z,1015.09
2018-09-15T01:21:44.873Z,1015.07
2018-09-15T01:22:44.903Z,1015.08
2018-09-15T01:23:44.900Z,1015.07
2018-09-15T01:24:44.914Z,1015.10
2018-09-15T01:25:44.926Z,1015.08
2018-09-15T01:26:44.941Z,1015.10
2018-09-15T01:27:44.965Z,1015.07
2018-09-15T01:28:44.968Z,1015.07
2018-09-15T01:29:44.990Z,1015.10
2018-09-15T01:30:45.001Z,1015.09
2018-09-15T01:31:45.021Z,1015.13
2018-09-15T01:32:45.028Z,1015.12
2018-09-15T01:33:45.043Z,1015.09
2018-09-15T01:34:45.056Z,1015.09
2018-09-15T01:35:45.067Z,1015.07
2018-09-15T01:36:45.080Z,1015.07
2018-09-15T01:37:45.097Z,1015.07
2018-09-15T01:38:45.111Z,1015.05
2018-09-15T01:39:45.124Z,1015.06
2018-09-15T01:40:45.160Z,1015.08
2018-09-15T01:41:45.150Z,1015.06
2018-09-15T01:42:45.169Z,1015.05
2018-09-15T01:43:45.177Z,1015.05
2018-09-15T01:44:45.192Z,1015.06
2018-09-15T01:45:45.209Z,1015.08
2018-09-15T01:46:45.222Z,1015.11
2018-09-15T01:47:45.237Z,1015.09
2018-09-15T01:48:45.248Z,1015.13
2018-09-15T01:49:45.261Z,1015.13
2018-09-15T01:50:45.275Z,1015.10
2018-09-15T01:51:45.288Z,1015.13
2018-09-15T01:52:45.303Z,1015.12
2018-09-15T01:53:45.317Z,1015.14
2018-09-15T01:54:45.331Z,1015.15
2018-09-15T01:55:45.367Z,1015.16
2018-09-15T01:56:45.358Z,1015.14
2018-09-15T01:57:45.379Z,1015.16
2018-09-15T01:58:45.387Z,1015.13
2018-09-15T01:59:45.399Z,1015.14
2018-09-15T02:00:45.414Z,1015.13
2018-09-15T02:01:45.426Z,1015.15
2018-09-15T02:02:45.440Z,1015.13
2018-09-15T02:03:45.457Z,1015.13
2018-09-15T02:04:45.469Z,1015.10
2018-09-15T02:05:45.484Z,1015.14
2018-09-15T02:06:45.525Z,1015.11
2018-09-15T02:07:45.510Z,1015.13
2018-09-15T02:08:45.525Z,1015.13
2018-09-15T02:09:45.544Z,1015.13
2018-09-15T02:10:45.721Z,1015.15
2018-09-15T02:11:45.590Z,1015.14
2018-09-15T02:12:45.582Z,1015.13
2018-09-15T02:13:45.599Z,1015.11
2018-09-15T02:14:45.607Z,1015.09
2018-09-15T02:15:46.441Z,1015.11
2018-09-15T02:16:45.635Z,1015.07
2018-09-15T02:17:45.652Z,1015.07
2018-09-15T02:18:45.696Z,1015.07
2018-09-15T02:19:45.679Z,1015.04
2018-09-15T02:20:45.699Z,1015.02
2018-09-15T02:21:45.704Z,1015.01
2018-09-15T02:22:45.811Z,1015.04
2018-09-15T02:23:45.737Z,1015.05
2018-09-15T02:24:45.744Z,1015.04
2018-09-15T02:25:45.756Z,1015.03
2018-09-15T02:26:45.774Z,1015.05
2018-09-15T02:27:45.785Z,1015.03
2018-09-15T02:28:45.798Z,1015.05
2018-09-15T02:29:45.812Z,1015.04
2018-09-15T02:30:45.828Z,1015.08
2018-09-15T02:31:45.841Z,1015.07
2018-09-15T02:32:45.853Z,1015.06
2018-09-15T02:33:45.868Z,1015.06
2018-09-15T02:34:45.882Z,1015.06
2018-09-15T02:35:45.896Z,1015.04
2018-09-15T02:36:45.914Z,1015.02
2018-09-15T02:37:45.930Z,1015.02
2018-09-15T02:38:45.940Z,1015.01
2018-09-15T02:39:45.950Z,1015.03
2018-09-15T02:40:45.987Z,1015.05
2018-09-15T02:41:46.133Z,1015.07
2018-09-15T02:42:45.993Z,1015.10
2018-09-15T02:43:46.019Z,1015.09
2018-09-15T02:44:46.019Z,1015.10
2018-09-15T02:45:46.044Z,1015.08
2018-09-15T02:46:46.047Z,1015.04
2018-09-15T02:47:46.162Z,1015.04
2018-09-15T02:48:46.073Z,1014.98
2018-09-15T02:49:46.086Z,1015.00
2018-09-15T02:50:46.143Z,1015.03
2018-09-15T02:51:46.114Z,1015.00
2018-09-15T02:52:46.130Z,1015.02
2018-09-15T02:53:46.140Z,1015.02
2018-09-15T02:54:46.211Z,1014.98
2018-09-15T02:55:46.168Z,1015.01
2018-09-15T02:56:46.182Z,1015.01
2018-09-15T02:57:46.197Z,1015.06
2018-09-15T02:58:46.208Z,1015.07
2018-09-15T02:59:46.228Z,1015.06
2018-09-15T03:00:46.546Z,1015.06
2018-09-15T03:01:46.257Z,1015.11
2018-09-15T03:02:46.265Z,1015.06
2018-09-15T03:03:46.278Z,1015.15
2018-09-15T03:04:46.290Z,1015.14
2018-09-15T03:05:46.311Z,1015.18
2018-09-15T03:06:46.326Z,1015.20
2018-09-15T03:07:46.336Z,1015.23
2018-09-15T03:08:46.345Z,1015.24
2018-09-15T03:09:46.365Z,1015.20
2018-09-15T03:10:46.436Z,1015.21
2018-09-15T03:11:46.383Z,1015.23
2018-09-15T03:12:46.399Z,1015.20
2018-09-15T03:13:46.489Z,1015.23
2018-09-15T03:14:46.488Z,1015.23
2018-09-15T03:15:46.440Z,1015.24
2018-09-15T03:16:46.460Z,1015.24
2018-09-15T03:17:46.468Z,1015.28
2018-09-15T03:18:46.479Z,1015.24
2018-09-15T03:19:46.495Z,1015.31
2018-09-15T03:20:46.522Z,1015.29
2018-09-15T03:21:46.522Z,1015.29
2018-09-15T03:22:46.536Z,1015.34
2018-09-15T03:23:46.555Z,1015.31
2018-09-15T03:24:46.568Z,1015.31
2018-09-15T03:25:46.583Z,1015.31
2018-09-15T03:26:46.599Z,1015.27
2018-09-15T03:27:46.602Z,1015.24
2018-09-15T03:28:46.668Z,1015.25
2018-09-15T03:29:46.637Z,1015.26
2018-09-15T03:30:46.648Z,1015.28
2018-09-15T03:31:46.660Z,1015.29
2018-09-15T03:32:46.670Z,1015.29
2018-09-15T03:33:46.705Z,1015.27
2018-09-15T03:34:46.703Z,1015.29
2018-09-15T03:35:46.728Z,1015.31
2018-09-15T03:36:46.737Z,1015.28
2018-09-15T03:37:46.741Z,1015.33
2018-09-15T03:38:46.750Z,1015.31
2018-09-15T03:39:46.770Z,1015.34
2018-09-15T03:40:46.783Z,1015.32
2018-09-15T03:41:46.958Z,1015.32
2018-09-15T03:42:46.812Z,1015.32
2018-09-15T03:43:46.819Z,1015.32
2018-09-15T03:44:46.841Z,1015.32
2018-09-15T03:45:46.916Z,1015.29
2018-09-15T03:46:46.933Z,1015.30
2018-09-15T03:47:46.894Z,1015.29
2018-09-15T03:48:46.890Z,1015.28
2018-09-15T03:49:46.901Z,1015.27
2018-09-15T03:50:46.915Z,1015.25
2018-09-15T03:51:46.941Z,1015.25
2018-09-15T03:52:46.941Z,1015.29
2018-09-15T03:53:46.959Z,1015.28
2018-09-15T03:54:46.971Z,1015.28
2018-09-15T03:55:47.017Z,1015.31
2018-09-15T03:56:47.003Z,1015.27
2018-09-15T03:57:47.014Z,1015.28
2018-09-15T03:58:47.022Z,1015.30
2018-09-15T03:59:47.066Z,1015.30
2018-09-15T04:00:47.056Z,1015.31
2018-09-15T04:01:47.064Z,1015.32
2018-09-15T04:02:47.077Z,1015.33
2018-09-15T04:03:47.092Z,1015.33
2018-09-15T04:04:47.102Z,1015.35
2018-09-15T04:05:47.116Z,1015.37
2018-09-15T04:06:47.134Z,1015.29
2018-09-15T04:07:47.142Z,1015.36
2018-09-15T04:08:47.157Z,1015.40
2018-09-15T04:09:47.171Z,1015.40
2018-09-15T04:10:47.193Z,1015.38
2018-09-15T04:11:47.205Z,1015.43
2018-09-15T04:12:47.210Z,1015.46
2018-09-15T04:13:47.231Z,1015.46
2018-09-15T04:14:47.237Z,1015.44
2018-09-15T04:15:47.250Z,1015.42
2018-09-15T04:16:47.345Z,1015.42
2018-09-15T04:17:47.320Z,1015.43
2018-09-15T04:18:47.325Z,1015.42
2018-09-15T04:19:47.336Z,1015.43
2018-09-15T04:20:47.321Z,1015.43
2018-09-15T04:21:47.336Z,1015.44
2018-09-15T04:22:47.347Z,1015.42
2018-09-15T04:23:47.362Z,1015.48
2018-09-15T04:24:47.372Z,1015.49
2018-09-15T04:25:47.384Z,1015.49
2018-09-15T04:26:47.398Z,1015.47
2018-09-15T04:27:47.417Z,1015.47
2018-09-15T04:28:47.427Z,1015.48
2018-09-15T04:29:47.460Z,1015.50
2018-09-15T04:30:47.462Z,1015.47
2018-09-15T04:31:47.483Z,1015.52
2018-09-15T04:32:47.480Z,1015.54
2018-09-15T04:33:47.492Z,1015.54
2018-09-15T04:34:47.506Z,1015.54
2018-09-15T04:35:47.522Z,1015.59
2018-09-15T04:36:47.545Z,1015.58
2018-09-15T04:37:47.578Z,1015.59
2018-09-15T04:38:47.560Z,1015.59
2018-09-15T04:39:47.577Z,1015.61
2018-09-15T04:40:47.588Z,1015.59
2018-09-15T04:41:47.664Z,1015.61
2018-09-15T04:42:47.613Z,1015.58
2018-09-15T04:43:47.625Z,1015.59
2018-09-15T04:44:47.641Z,1015.60
2018-09-15T04:45:47.651Z,1015.63
2018-09-15T04:46:47.671Z,1015.63
2018-09-15T04:47:47.680Z,1015.56
2018-09-15T04:48:47.693Z,1015.63
2018-09-15T04:49:47.709Z,1015.60
2018-09-15T04:50:47.747Z,1015.64
2018-09-15T04:51:47.779Z,1015.66
2018-09-15T04:52:47.865Z,1015.65
2018-09-15T04:53:47.766Z,1015.65
2018-09-15T04:54:47.773Z,1015.64
2018-09-15T04:55:47.790Z,1015.64
2018-09-15T04:56:47.801Z,1015.66
2018-09-15T04:57:47.831Z,1015.66
2018-09-15T04:58:47.874Z,1015.67
2018-09-15T04:59:47.839Z,1015.67
2018-09-15T05:00:47.864Z,1015.76
2018-09-15T05:01:47.869Z,1015.75
2018-09-15T05:02:47.882Z,1015.71
2018-09-15T05:03:47.897Z,1015.73
2018-09-15T05:04:47.911Z,1015.73
2018-09-15T05:05:47.925Z,1015.74
2018-09-15T05:06:47.941Z,1015.75
2018-09-15T05:07:47.950Z,1015.72
2018-09-15T05:08:48.271Z,1015.74
2018-09-15T05:09:47.975Z,1015.73
2018-09-15T05:10:47.989Z,1015.73
2018-09-15T05:11:48.002Z,1015.74
2018-09-15T05:12:48.060Z,1015.74
2018-09-15T05:13:48.053Z,1015.74
2018-09-15T05:14:48.053Z,1015.76
2018-09-15T05:15:48.056Z,1015.78
2018-09-15T05:16:48.169Z,1015.77
2018-09-15T05:17:48.082Z,1015.75
2018-09-15T05:18:48.100Z,1015.74
2018-09-15T05:19:48.109Z,1015.79
2018-09-15T05:20:48.121Z,1015.78
2018-09-15T05:21:48.138Z,1015.78
2018-09-15T05:22:48.153Z,1015.79
2018-09-15T05:23:48.160Z,1015.81
2018-09-15T05:24:48.178Z,1015.80
2018-09-15T05:25:48.196Z,1015.81
2018-09-15T05:26:48.272Z,1015.86
2018-09-15T05:27:48.229Z,1015.85
2018-09-15T05:28:48.239Z,1015.89
2018-09-15T05:29:48.245Z,1015.88
2018-09-15T05:30:48.255Z,1015.85
2018-09-15T05:31:48.270Z,1015.89
2018-09-15T05:32:48.283Z,1015.88
2018-09-15T05:33:48.296Z,1015.91
2018-09-15T05:34:48.314Z,1015.92
2018-09-15T05:35:48.325Z,1015.90
2018-09-15T05:36:48.339Z,1015.94
2018-09-15T05:37:48.368Z,1015.87
2018-09-15T05:38:48.365Z,1015.88
2018-09-15T05:39:48.397Z,1015.94
2018-09-15T05:40:48.396Z,1015.89
2018-09-15T05:41:48.408Z,1015.88
2018-09-15T05:42:48.416Z,1015.93
2018-09-15T05:43:48.429Z,1015.96
2018-09-15T05:44:48.443Z,1015.96
2018-09-15T05:45:48.460Z,1015.93
2018-09-15T05:46:48.474Z,1015.95
2018-09-15T05:47:49.334Z,1015.96
2018-09-15T05:48:48.497Z,1015.97
2018-09-15T05:49:48.566Z,1015.98
2018-09-15T05:50:48.523Z,1015.99
2018-09-15T05:51:48.565Z,1015.97
2018-09-15T05:52:48.550Z,1016.04
2018-09-15T05:53:48.570Z,1015.98
2018-09-15T05:54:48.578Z,1016.03
2018-09-15T05:55:48.594Z,1016.01
2018-09-15T05:56:48.614Z,1016.00
2018-09-15T05:57:48.681Z,1016.04
2018-09-15T05:58:48.650Z,1016.07
2018-09-15T05:59:48.645Z,1016.13
2018-09-15T06:00:48.676Z,1016.14
2018-09-15T06:01:48.800Z,1016.18
2018-09-15T06:02:48.686Z,1016.14
2018-09-15T06:03:48.701Z,1016.11
2018-09-15T06:04:48.714Z,1016.10
2018-09-15T06:05:48.742Z,1016.13
2018-09-15T06:06:48.758Z,1016.13
2018-09-15T06:07:48.769Z,1016.08
2018-09-15T06:08:48.767Z,1016.14
2018-09-15T06:09:48.785Z,1016.19
2018-09-15T06:10:48.798Z,1016.19
2018-09-15T06:11:48.806Z,1016.20
2018-09-15T06:12:48.846Z,1016.21
2018-09-15T06:13:48.900Z,1016.22
2018-09-15T06:14:48.848Z,1016.20
2018-09-15T06:15:48.867Z,1016.24
2018-09-15T06:16:48.879Z,1016.27
2018-09-15T06:17:48.888Z,1016.21
2018-09-15T06:18:48.899Z,1016.21
2018-09-15T06:19:48.915Z,1016.24
2018-09-15T06:20:48.928Z,1016.20
2018-09-15T06:21:48.943Z,1016.24
2018-09-15T06:22:48.960Z,1016.29
2018-09-15T06:23:48.970Z,1016.31
2018-09-15T06:24:49.287Z,1016.32
2018-09-15T06:25:48.999Z,1016.35
2018-09-15T06:26:49.014Z,1016.35
2018-09-15T06:27:49.026Z,1016.34
2018-09-15T06:28:49.042Z,1016.38
2018-09-15T06:29:49.058Z,1016.39
2018-09-15T06:30:49.079Z,1016.41
2018-09-15T06:31:49.115Z,1016.42
2018-09-15T06:32:49.137Z,1016.41
2018-09-15T06:33:49.113Z,1016.44
2018-09-15T06:34:49.122Z,1016.45
2018-09-15T06:35:49.134Z,1016.40
2018-09-15T06:36:49.149Z,1016.41
2018-09-15T06:37:49.160Z,1016.37
2018-09-15T06:38:49.174Z,1016.40
2018-09-15T06:39:49.190Z,1016.39
2018-09-15T06:40:49.218Z,1016.41
2018-09-15T06:41:49.222Z,1016.45
2018-09-15T06:42:49.231Z,1016.47
2018-09-15T06:43:49.241Z,1016.53
2018-09-15T06:44:49.259Z,1016.49
2018-09-15T06:45:49.385Z,1016.52
2018-09-15T06:46:49.283Z,1016.48
2018-09-15T06:47:49.300Z,1016.56
2018-09-15T06:48:49.313Z,1016.58
2018-09-15T06:49:49.344Z,1016.64
2018-09-15T06:50:49.347Z,1016.65
2018-09-15T06:51:49.350Z,1016.69
2018-09-15T06:52:49.365Z,1016.70
2018-09-15T06:53:49.390Z,1016.77
2018-09-15T06:54:49.392Z,1016.80
2018-09-15T06:55:49.406Z,1016.80
2018-09-15T06:56:49.434Z,1016.76
2018-09-15T06:57:49.489Z,1016.73
2018-09-15T06:58:49.451Z,1016.78
2018-09-15T06:59:49.469Z,1016.76
2018-09-15T07:00:49.523Z,1016.76
2018-09-15T07:01:49.499Z,1016.83
2018-09-15T07:02:49.503Z,1016.81
2018-09-15T07:03:49.517Z,1016.82
2018-09-15T07:06:49.873Z,1016.83
2018-09-15T07:07:49.573Z,1016.87
2018-09-15T07:08:49.584Z,1016.91
2018-09-15T07:09:49.599Z,1016.92
2018-09-15T07:10:49.678Z,1016.94
2018-09-15T07:11:49.634Z,1016.97
2018-09-15T07:12:49.647Z,1016.95
2018-09-15T07:13:49.658Z,1016.96
2018-09-15T07:14:49.679Z,1016.97
2018-09-15T07:15:49.682Z,1016.93
2018-09-15T07:16:49.696Z,1016.97
2018-09-15T07:17:49.711Z,1017.01
2018-09-15T07:18:49.722Z,1017.04
2018-09-15T07:19:49.746Z,1017.05
2018-09-15T07:20:49.748Z,1017.04
2018-09-15T07:21:49.769Z,1016.98
2018-09-15T07:22:49.792Z,1017.08
2018-09-15T07:23:49.796Z,1017.09
2018-09-15T07:24:49.810Z,1017.06
2018-09-15T07:25:49.822Z,1017.11
2018-09-15T07:26:49.832Z,1017.01
2018-09-15T07:27:49.853Z,1017.02
2018-09-15T07:28:49.859Z,1017.08
2018-09-15T07:29:49.877Z,1017.06
2018-09-15T07:30:49.894Z,1017.06
2018-09-15T07:31:49.925Z,1017.11
2018-09-15T07:32:49.949Z,1017.11
2018-09-15T07:33:49.952Z,1017.12
2018-09-15T07:34:50.005Z,1017.11
2018-09-15T07:35:50.160Z,1017.11
2018-09-15T07:36:49.973Z,1017.12
2018-09-15T07:37:50.092Z,1017.08
2018-09-15T07:38:50.089Z,1017.10
2018-09-15T07:39:50.796Z,1017.12
2018-09-15T07:40:50.028Z,1017.17
2018-09-15T07:41:50.043Z,1017.10
2018-09-15T07:42:50.070Z,1017.10
2018-09-15T07:43:50.076Z,1017.13
2018-09-15T07:44:50.111Z,1017.07
2018-09-15T07:45:50.103Z,1017.10
2018-09-15T07:46:50.112Z,1017.10
2018-09-15T07:47:50.277Z,1017.10
2018-09-15T07:48:50.146Z,1017.12
2018-09-15T07:49:50.158Z,1017.11
2018-09-15T07:50:50.180Z,1017.13
2018-09-15T07:51:50.184Z,1017.17
2018-09-15T07:52:50.217Z,1017.18
2018-09-15T07:53:50.214Z,1017.17
2018-09-15T07:54:50.248Z,1017.18
2018-09-15T07:55:50.242Z,1017.18
2018-09-15T07:56:50.258Z,1017.21
2018-09-15T07:57:50.436Z,1017.18
2018-09-15T07:58:50.286Z,1017.17
2018-09-15T07:59:50.321Z,1017.17
2018-09-15T08:00:50.317Z,1017.22
2018-09-15T08:01:50.356Z,1017.23
2018-09-15T08:02:50.347Z,1017.27
2018-09-15T08:03:50.355Z,1017.31
2018-09-15T08:04:50.401Z,1017.29
2018-09-15T08:05:50.387Z,1017.33
2018-09-15T08:06:50.401Z,1017.35
2018-09-15T08:07:50.413Z,1017.37
2018-09-15T08:08:50.442Z,1017.36
2018-09-15T08:09:50.439Z,1017.40
2018-09-15T08:10:50.468Z,1017.40
2018-09-15T08:11:50.463Z,1017.47
2018-09-15T08:12:50.497Z,1017.48
2018-09-15T08:13:50.503Z,1017.50
2018-09-15T08:14:50.508Z,1017.46
2018-09-15T08:15:50.522Z,1017.47
2018-09-15T08:16:50.535Z,1017.51
2018-09-15T08:17:50.552Z,1017.51
2018-09-15T08:18:50.566Z,1017.51
2018-09-15T08:19:50.579Z,1017.55
2018-09-15T08:20:50.875Z,1017.56
2018-09-15T08:21:50.613Z,1017.57
2018-09-15T08:22:50.624Z,1017.57
2018-09-15T08:23:50.639Z,1017.55
2018-09-15T08:24:50.662Z,1017.53
2018-09-15T08:25:50.669Z,1017.56
2018-09-15T08:26:50.717Z,1017.53
2018-09-15T08:27:50.716Z,1017.60
2018-09-15T08:28:50.715Z,1017.61
2018-09-15T08:29:50.727Z,1017.63
2018-09-15T08:30:50.761Z,1017.56
2018-09-15T08:31:50.797Z,1017.58
2018-09-15T08:32:50.772Z,1017.59
2018-09-15T08:33:50.813Z,1017.60
2018-09-15T08:34:50.799Z,1017.59
2018-09-15T08:35:50.881Z,1017.60
2018-09-15T08:37:50.848Z,1017.65
2018-09-15T08:38:50.888Z,1017.64
2018-09-15T08:39:50.885Z,1017.61
2018-09-15T08:40:50.894Z,1017.66
2018-09-15T08:41:50.925Z,1017.65
2018-09-15T08:42:50.921Z,1017.64
2018-09-15T08:43:50.948Z,1017.65
2018-09-15T08:44:51.017Z,1017.61
2018-09-15T08:45:50.965Z,1017.68
2018-09-15T08:46:50.980Z,1017.68
2018-09-15T08:47:50.991Z,1017.64
2018-09-15T08:48:51.010Z,1017.70
2018-09-15T08:49:51.019Z,1017.69
2018-09-15T08:50:51.035Z,1017.72
2018-09-15T08:51:51.058Z,1017.75
2018-09-15T08:52:51.069Z,1017.74
2018-09-15T08:53:51.084Z,1017.76
2018-09-15T08:54:51.103Z,1017.75
2018-09-15T08:55:51.108Z,1017.75
2018-09-15T08:56:51.128Z,1017.74
2018-09-15T08:57:51.140Z,1017.74
2018-09-15T08:58:51.153Z,1017.76
2018-09-15T08:59:51.191Z,1017.75
2018-09-15T09:00:51.186Z,1017.74
2018-09-15T09:01:51.202Z,1017.73
2018-09-15T09:02:51.212Z,1017.84
2018-09-15T09:03:51.315Z,1017.77
2018-09-15T09:04:51.243Z,1017.79
2018-09-15T09:05:51.260Z,1017.78
2018-09-15T09:06:51.276Z,1017.82
2018-09-15T09:07:51.286Z,1017.81
2018-09-15T09:08:51.305Z,1017.83
2018-09-15T09:09:51.320Z,1017.84
2018-09-15T09:10:51.332Z,1017.86
2018-09-15T09:11:51.345Z,1017.84
2018-09-15T09:12:51.360Z,1017.87
2018-09-15T09:13:51.376Z,1017.90
2018-09-15T09:14:51.394Z,1017.96
2018-09-15T09:15:51.404Z,1017.95
2018-09-15T09:16:51.472Z,1017.93
2018-09-15T09:17:51.484Z,1017.87
2018-09-15T09:18:51.484Z,1017.89
2018-09-15T09:19:51.525Z,1017.89
2018-09-15T09:20:51.484Z,1017.91
2018-09-15T09:21:51.496Z,1017.90
2018-09-15T09:22:51.508Z,1017.88
2018-09-15T09:23:51.524Z,1017.94
2018-09-15T09:24:51.572Z,1017.95
2018-09-15T09:25:51.585Z,1017.92
2018-09-15T09:26:51.567Z,1017.96
2018-09-15T09:27:51.583Z,1017.92
2018-09-15T09:28:51.602Z,1018.00
2018-09-15T09:29:51.710Z,1017.98
2018-09-15T09:30:51.635Z,1017.98
2018-09-15T09:31:51.641Z,1017.94
2018-09-15T09:32:51.657Z,1017.97
2018-09-15T09:33:51.672Z,1017.99
2018-09-15T09:34:51.685Z,1018.03
2018-09-15T09:35:51.702Z,1018.02
2018-09-15T09:36:51.717Z,1018.07
2018-09-15T09:37:51.733Z,1018.03
2018-09-15T09:38:51.745Z,1018.09
2018-09-15T09:39:51.760Z,1018.11
2018-09-15T09:40:51.775Z,1018.08
2018-09-15T09:41:51.793Z,1018.11
2018-09-15T09:42:51.807Z,1018.10
2018-09-15T09:43:51.839Z,1018.08
2018-09-15T09:44:51.834Z,1018.05
2018-09-15T09:45:51.850Z,1018.03
2018-09-15T09:46:51.876Z,1018.01
2018-09-15T09:47:51.926Z,1018.01
2018-09-15T09:48:51.895Z,1018.04
2018-09-15T09:49:51.911Z,1018.06
2018-09-15T09:50:51.926Z,1018.07
2018-09-15T09:51:51.938Z,1018.08
2018-09-15T09:52:51.964Z,1018.09
2018-09-15T09:53:51.998Z,1018.14
2018-09-15T09:54:52.319Z,1018.14
2018-09-15T09:55:52.007Z,1018.09
2018-09-15T09:56:52.018Z,1018.15
2018-09-15T09:57:52.129Z,1018.11
2018-09-15T09:58:52.045Z,1018.05
2018-09-15T09:59:52.061Z,1018.14
2018-09-15T10:00:52.077Z,1018.13
2018-09-15T10:01:52.088Z,1018.08
2018-09-15T10:02:52.103Z,1018.14
2018-09-15T10:03:52.115Z,1018.06
2018-09-15T10:04:52.131Z,1018.07
2018-09-15T10:05:52.147Z,1018.12
2018-09-15T10:06:52.162Z,1018.07
2018-09-15T10:07:52.178Z,1018.10
2018-09-15T10:08:52.193Z,1018.13
2018-09-15T10:09:52.206Z,1018.05
2018-09-15T10:10:52.225Z,1018.12
2018-09-15T10:11:52.361Z,1018.12
2018-09-15T10:12:52.277Z,1018.07
2018-09-15T10:13:52.266Z,1018.04
2018-09-15T10:14:52.281Z,1017.98
2018-09-15T10:15:52.310Z,1018.02
2018-09-15T10:16:52.311Z,1018.04
2018-09-15T10:17:52.329Z,1018.10
2018-09-15T10:18:52.340Z,1018.12
2018-09-15T10:19:52.361Z,1018.05
2018-09-15T10:20:52.372Z,1018.19
2018-09-15T10:21:52.387Z,1018.11
2018-09-15T10:22:52.401Z,1018.14
2018-09-15T10:23:52.418Z,1018.11
2018-09-15T10:24:52.435Z,1018.10
2018-09-15T10:25:52.454Z,1018.04
2018-09-15T10:26:52.463Z,1018.05
2018-09-15T10:27:52.477Z,1018.04
2018-09-15T10:28:52.643Z,1018.10
2018-09-15T10:29:52.511Z,1018.15
2018-09-15T10:30:52.559Z,1018.08
2018-09-15T10:31:52.591Z,1018.11
2018-09-15T10:32:52.559Z,1018.12
2018-09-15T10:33:52.569Z,1018.18
2018-09-15T10:34:52.585Z,1018.07
2018-09-15T10:35:52.593Z,1018.09
2018-09-15T10:36:52.610Z,1018.16
2018-09-15T10:37:52.647Z,1018.21
2018-09-15T10:38:52.645Z,1018.19
2018-09-15T10:39:52.657Z,1018.19
2018-09-15T10:40:52.670Z,1018.13
2018-09-15T10:41:52.687Z,1018.14
2018-09-15T10:42:53.247Z,1018.21
2018-09-15T10:43:54.140Z,1018.29
2018-09-15T10:44:52.734Z,1018.22
2018-09-15T10:45:52.809Z,1018.19
2018-09-15T10:46:52.810Z,1018.20
2018-09-15T10:47:52.773Z,1018.19
2018-09-15T10:48:52.798Z,1018.12
2018-09-15T10:49:52.806Z,1018.22
2018-09-15T10:50:52.820Z,1018.25
2018-09-15T10:51:52.835Z,1018.21
2018-09-15T10:52:52.851Z,1018.20
2018-09-15T10:53:52.866Z,1018.18
2018-09-15T10:54:52.893Z,1018.21
2018-09-15T10:55:52.897Z,1018.22
2018-09-15T10:56:52.911Z,1018.23
2018-09-15T10:57:52.928Z,1018.22
2018-09-15T10:58:53.265Z,1018.23
2018-09-15T10:59:52.974Z,1018.19
2018-09-15T11:00:52.975Z,1018.21
2018-09-15T11:01:52.987Z,1018.21
2018-09-15T11:02:53.067Z,1018.25
2018-09-15T11:03:53.045Z,1018.29
2018-09-15T11:04:53.033Z,1018.28
2018-09-15T11:05:53.108Z,1018.23
2018-09-15T11:06:53.061Z,1018.21
2018-09-15T11:07:53.073Z,1018.22
2018-09-15T11:08:53.089Z,1018.13
2018-09-15T11:09:53.104Z,1018.11
2018-09-15T11:10:53.121Z,1018.09
2018-09-15T11:11:53.178Z,1018.09
2018-09-15T11:12:53.158Z,1018.04
2018-09-15T11:13:53.162Z,1018.05
2018-09-15T11:14:53.178Z,1018.03
2018-09-15T11:15:53.192Z,1018.01
2018-09-15T11:16:53.207Z,1018.02
2018-09-15T11:17:53.224Z,1018.04
2018-09-15T11:18:53.237Z,1017.97
2018-09-15T11:19:53.250Z,1017.98
2018-09-15T11:20:53.270Z,1017.99
2018-09-15T11:21:53.286Z,1018.05
2018-09-15T11:22:53.309Z,1018.08
2018-09-15T11:23:53.346Z,1018.05
2018-09-15T11:24:53.326Z,1018.08
2018-09-15T11:25:53.342Z,1018.11
2018-09-15T11:26:53.361Z,1018.13
2018-09-15T11:27:53.373Z,1018.13
2018-09-15T11:28:53.476Z,1018.19
2018-09-15T11:29:53.405Z,1018.16
2018-09-15T11:30:53.409Z,1018.17
2018-09-15T11:31:53.729Z,1018.19
2018-09-15T11:32:53.442Z,1018.16
2018-09-15T11:33:53.468Z,1018.19
2018-09-15T11:34:53.474Z,1018.16
2018-09-15T11:35:53.484Z,1018.17
2018-09-15T11:36:53.520Z,1018.18
2018-09-15T11:37:53.520Z,1018.17
2018-09-15T11:38:53.526Z,1018.14
2018-09-15T11:39:53.543Z,1018.15
2018-09-15T11:40:53.561Z,1018.18
2018-09-15T11:41:53.571Z,1018.17
2018-09-15T11:42:53.590Z,1018.17
2018-09-15T11:43:53.601Z,1018.16
2018-09-15T11:44:53.615Z,1018.18
2018-09-15T11:45:53.631Z,1018.18
2018-09-15T11:46:53.645Z,1018.18
2018-09-15T11:47:53.688Z,1018.18
2018-09-15T11:48:53.681Z,1018.23
2018-09-15T11:49:53.691Z,1018.25
2018-09-15T11:50:53.704Z,1018.22
2018-09-15T11:51:53.718Z,1018.21
2018-09-15T11:52:53.734Z,1018.18
2018-09-15T11:53:53.820Z,1018.15
2018-09-15T11:54:53.767Z,1018.18
2018-09-15T11:55:53.794Z,1018.18
2018-09-15T11:56:53.790Z,1018.16
2018-09-15T11:57:53.807Z,1018.20
2018-09-15T11:58:53.825Z,1018.19
2018-09-15T11:59:53.861Z,1018.20
2018-09-15T12:00:53.853Z,1018.25
2018-09-15T12:01:54.144Z,1018.23
2018-09-15T12:02:53.880Z,1018.23
2018-09-15T12:03:53.900Z,1018.25
2018-09-15T12:04:53.912Z,1018.29
2018-09-15T12:05:53.930Z,1018.30
2018-09-15T12:06:53.940Z,1018.31
2018-09-15T12:07:54.050Z,1018.35
2018-09-15T12:08:53.985Z,1018.40